Aeroporto :
LOGIN :

Iscrizione | Disclaimer

   EN    FR    IT 

 










Sommario :    VFR   VFR Marginale   IFR   IFR Intensivo   IFR Molto Intensivo
Visibilità : 
Base nubi : 
>= 8 km
>= 3000ft
5 / 8 km
1000 / 3000 ft
1500m / 5 km
500 / 1000 ft
800 / 1500m
200 / 500 ft
< 800m
< 200 ft
Simboli :   Temporali  Nebbia  Neve Forte  Precipitazioni Forti  Vento > 20 kt
SIGMETs :   Varie  Temporali  Ghiacco  Turbolenza  Onda orograficha  Ceneri Vulcaniche







- Altitudine del aeroporto : 141 ft
- Codice IATA : SKS


EKSP - Srydstrup Vojens

ULTIMO METAR :
  • 152050Z 27013KT 2500 BR OVC003 14/14 Q1012

METARs OBSOLETI :
  • 152020Z 26014KT 1400 R10/1400D R28/1500U BR OVC002 14/14 Q1012
  • 152001Z 25013KT 0800 R10/0650D R28/1700D FG VV002 15/15 Q1011
  • 151950Z 25012KT 3000 BR BKN003 16/15 Q1011
  • 151932Z 24010KT 6000 BKN004 BKN020 16/15 Q1011
  • 151920Z 24009KT 8000 BKN004 BKN020 16/16 Q1011
  • 151850Z 23009KT 8000 BKN003 BKN006 16/16 Q1010
  • 151820Z 21007KT 1800 -DZ BR BKN003 16/16 Q1011

TAF COR TAF EKSP
Valido dal 15 a 21 ore il 16 a 21 ore UTC


152031Z 1521/1621 25012KT 1200 BR BKN002
BECMG 1521/1522 9999 NSW SCT020
TEMPO 1522/1605 4000 BR BKN006
BECMG 1618/1621 19005KT
Nessun NOTAM noto per questo aeroporto.



MetMap, La meteo Aeronautica in un colpo d'occhio ! - Copyright ORBIFLY Dicembre 2007 - Disclaimer

ORBIFLY MET'MAP TEAM :

Programmazione e sviluppo : Alexandra Zaïnal
Concezione e sviluppo : Baudouin d'Aumeries
Co-Programmazione e sviluppo : Marc-Olivier Méhu
Supporto tecnico e logistico : Manuel Goepfert
Aiuto per la traduzione : Arnaldo La Scala

Contatto : metmap@orbifly.com




FONTI E CREDITI :

   NOAA